Time;durP1;ratioP1;P1;durP2;ratioP2;P2;SDS_P1;SDS_P2;PMS_P1;PMS_P2;Temp;Humidity;BMP_temperature;BMP_pressure;BME280_temperature;BME280_humidity;BME280_pressure;Samples;Min_cycle;Max_cycle;Signal;HPM_P1;HPM_P2
2022/11/10 00:00:31;;;;;;;19.23;4.40;;;;;;;8.18;100.00;101408.28;12749577;23;20017;-80
2022/11/10 00:05:32;;;;;;;20.08;4.22;;;;;;;8.15;100.00;101408.72;12750148;23;20017;-80
2022/11/10 00:10:55;;;;;;;23.15;5.50;;;;;;;7.98;100.00;101382.94;12755853;23;20020;-80
2022/11/10 00:21:13;;;;;;;12.55;4.38;;;;;;;8.04;100.00;101387.50;12754161;23;20017;-79
2022/11/10 00:26:16;;;;;;;18.02;5.00;;;;;;;8.09;100.00;101398.66;12770558;23;20121;-80
2022/11/10 00:31:17;;;;;;;18.92;5.50;;;;;;;8.16;100.00;101404.09;12771467;23;20028;-80
2022/11/10 00:36:17;;;;;;;22.50;6.63;;;;;;;8.15;100.00;101402.41;12770941;23;20447;-80
2022/11/10 00:41:18;;;;;;;18.98;5.80;;;;;;;8.18;100.00;101419.25;12746305;23;20032;-80
2022/11/10 00:46:19;;;;;;;22.25;6.78;;;;;;;8.11;100.00;101423.97;12745987;23;20021;-80
2022/11/10 00:51:22;;;;;;;17.25;6.50;;;;;;;8.04;100.00;101418.53;12795419;23;20020;-81
2022/11/10 00:56:22;;;;;;;13.77;5.80;;;;;;;8.10;100.00;101433.25;12796271;23;20025;-80
2022/11/10 01:01:23;;;;;;;17.55;6.10;;;;;;;7.74;100.00;101379.97;12760919;23;20009;-81
2022/11/10 01:06:24;;;;;;;23.17;8.10;;;;;;;8.04;100.00;101434.13;12725874;23;1105582;-80
2022/11/10 01:11:25;;;;;;;26.23;7.78;;;;;;;8.04;100.00;101435.00;12798071;23;20021;-80
2022/11/10 01:16:28;;;;;;;21.00;8.00;;;;;;;7.95;100.00;101424.53;12772868;23;20163;-81
2022/11/10 01:21:29;;;;;;;27.13;7.40;;;;;;;7.99;100.00;101431.25;12725548;23;20016;-80
2022/11/10 01:26:29;;;;;;;26.33;8.10;;;;;;;8.09;100.00;101483.69;12749014;23;20027;-81
2022/11/10 01:31:30;;;;;;;24.55;8.85;;;;;;;7.92;100.00;101471.56;12749072;23;20013;-81
2022/11/10 01:36:30;;;;;;;23.33;8.82;;;;;;;7.93;100.00;101482.31;12772165;23;20013;-80
2022/11/10 01:41:31;;;;;;;38.13;9.05;;;;;;;7.98;100.00;101490.72;12772984;23;20612;-80
2022/11/10 01:46:31;;;;;;;25.70;9.02;;;;;;;8.01;100.00;101495.75;12795929;23;20021;-80
2022/11/10 01:51:48;;;;;;;33.10;11.43;;;;;;;8.00;100.00;101498.72;12796315;23;20023;-80
2022/11/10 01:56:50;;;;;;;26.67;12.20;;;;;;;7.94;100.00;101494.09;12773019;23;20394;-80
2022/11/10 02:01:52;;;;;;;33.85;11.75;;;;;;;7.99;100.00;101506.09;12773896;23;20013;-80
2022/11/10 02:06:53;;;;;;;31.90;11.50;;;;;;;7.56;100.00;101442.94;12747902;23;20481;-80
2022/11/10 02:11:53;;;;;;;28.98;10.52;;;;;;;7.87;100.00;101495.03;12746919;23;20020;-80
2022/11/10 02:16:54;;;;;;;31.17;10.88;;;;;;;7.88;100.00;101473.94;12747163;23;20426;-79
2022/11/10 02:21:54;;;;;;;31.23;10.48;;;;;;;8.02;100.00;101504.81;12797124;23;20017;-80
2022/11/10 02:26:55;;;;;;;35.03;12.30;;;;;;;7.99;100.00;101516.25;12747982;23;20028;-80
2022/11/10 02:31:55;;;;;;;31.02;12.43;;;;;;;8.02;100.00;101534.97;12748344;23;20021;-80
2022/11/10 02:36:56;;;;;;;27.25;11.32;;;;;;;8.02;100.00;101540.47;12772658;23;20363;-80
2022/11/10 02:41:56;;;;;;;41.85;13.30;;;;;;;7.99;100.00;101546.41;12793148;23;20039;-80
2022/11/10 02:46:57;;;;;;;33.47;13.05;;;;;;;7.93;100.00;101536.31;12796745;23;20091;-77
2022/11/10 02:51:57;;;;;;;37.75;12.82;;;;;;;8.01;100.00;101555.25;12772956;23;20017;-81
2022/11/10 02:56:57;;;;;;;34.28;11.60;;;;;;;8.05;100.00;101553.75;12771745;23;20029;-80
2022/11/10 03:01:58;;;;;;;32.92;13.07;;;;;;;7.97;100.00;101543.03;12797433;23;20021;-80
2022/11/10 03:06:58;;;;;;;33.92;11.00;;;;;;;7.86;100.00;101561.88;12771363;23;20054;-80
2022/11/10 03:11:59;;;;;;;29.30;11.60;;;;;;;7.99;100.00;101580.13;12763191;23;20020;-81
2022/11/10 03:16:59;;;;;;;29.90;11.02;;;;;;;7.92;100.00;101570.25;12808670;23;20021;-80
2022/11/10 03:22:00;;;;;;;37.75;12.82;;;;;;;7.84;100.00;101569.47;12747344;23;20048;-78
2022/11/10 03:27:01;;;;;;;28.40;11.30;;;;;;;7.91;100.00;101598.75;12746769;23;20021;-78
2022/11/10 03:32:01;;;;;;;35.00;12.63;;;;;;;7.89;100.00;101602.53;12759125;23;20013;-80
2022/11/10 03:37:02;;;;;;;34.15;12.15;;;;;;;7.98;100.00;101618.75;12820336;23;20063;-80
2022/11/10 03:42:02;;;;;;;25.75;13.15;;;;;;;7.96;100.00;101609.88;12792432;23;20009;-81
2022/11/10 03:47:03;;;;;;;29.77;13.68;;;;;;;7.89;100.00;101610.75;12747342;23;20016;-81
2022/11/10 03:52:03;;;;;;;29.13;11.32;;;;;;;7.65;100.00;101581.38;12796532;23;20334;-81
2022/11/10 03:57:04;;;;;;;30.55;13.65;;;;;;;7.70;100.00;101592.53;12795991;23;20435;-80
2022/11/10 04:02:04;;;;;;;34.05;13.18;;;;;;;7.91;100.00;101637.13;12746576;23;20020;-80
2022/11/10 04:17:49;;;;;;;35.60;13.32;;;;;;;7.71;100.00;101643.56;12801641;23;20017;-80
2022/11/10 04:28:09;;;;;;;42.03;12.98;;;;;;;7.84;100.00;101670.91;12803325;23;20030;-80
2022/11/10 04:33:09;;;;;;;40.75;12.75;;;;;;;7.89;100.00;101686.69;12771676;23;20013;-80
2022/11/10 04:38:11;;;;;;;45.10;13.27;;;;;;;7.85;100.00;101690.94;12796620;23;20017;-80
2022/11/10 04:43:11;;;;;;;35.45;12.55;;;;;;;7.87;100.00;101703.38;12798269;23;20447;-79
2022/11/10 04:48:12;;;;;;;41.28;13.85;;;;;;;7.70;100.00;101680.22;12798793;23;20056;-80
2022/11/10 04:53:12;;;;;;;37.17;15.68;;;;;;;7.92;100.00;101689.03;12775206;23;20024;-80
2022/11/10 04:58:13;;;;;;;43.13;14.63;;;;;;;7.98;100.00;101699.13;12775120;23;20024;-80
2022/11/10 05:03:14;;;;;;;39.47;14.80;;;;;;;8.12;100.00;101688.91;12796644;23;20032;-81
2022/11/10 05:08:14;;;;;;;45.50;16.23;;;;;;;8.24;100.00;101687.16;12767426;23;20071;-79
2022/11/10 05:13:15;;;;;;;40.25;17.00;;;;;;;8.27;100.00;101697.72;12772137;23;20028;-80
2022/11/10 05:18:15;;;;;;;51.58;19.30;;;;;;;8.23;100.00;101696.47;12797905;23;20028;-80
2022/11/10 05:28:36;;;;;;;46.03;16.63;;;;;;;8.24;100.00;101709.13;12799173;23;20021;-80
2022/11/10 05:33:36;;;;;;;50.10;18.90;;;;;;;7.95;100.00;101660.31;12770763;23;20009;-80
2022/11/10 05:38:37;;;;;;;59.58;21.27;;;;;;;8.20;100.00;101707.88;12745369;23;20016;-80
2022/11/10 05:43:37;;;;;;;43.35;18.38;;;;;;;8.26;100.00;101711.66;12722209;23;20116;-80
2022/11/10 05:48:38;;;;;;;60.10;20.17;;;;;;;8.08;100.00;101682.19;12765479;23;20017;-80
2022/11/10 05:53:38;;;;;;;48.38;19.33;;;;;;;7.92;100.00;101650.63;12748276;23;20017;-79
2022/11/10 05:58:39;;;;;;;44.47;17.65;;;;;;;8.38;100.00;101731.84;12747551;23;20013;-80
2022/11/10 06:03:39;;;;;;;44.40;17.55;;;;;;;8.39;100.00;101727.19;12747105;23;20024;-80
2022/11/10 06:08:39;;;;;;;50.40;18.90;;;;;;;8.46;100.00;101744.50;12748238;23;20024;-80
2022/11/10 06:13:40;;;;;;;56.05;18.48;;;;;;;8.46;100.00;101756.31;12770544;23;20009;-80
2022/11/10 06:18:40;;;;;;;39.53;17.10;;;;;;;8.43;100.00;101766.88;12770931;23;20028;-81
2022/11/10 06:23:41;;;;;;;42.97;16.95;;;;;;;8.02;100.00;101707.72;12751316;23;20036;-81
2022/11/10 06:28:41;;;;;;;41.92;16.15;;;;;;;8.41;100.00;101785.47;12719933;23;20016;-81
2022/11/10 06:33:42;;;;;;;43.50;16.35;;;;;;;8.46;100.00;101792.00;12772263;23;20355;-80
2022/11/10 06:38:43;;;;;;;50.22;17.92;;;;;;;8.42;100.00;101795.41;12748006;23;20379;-81
2022/11/10 06:43:43;;;;;;;60.67;20.75;;;;;;;8.33;100.00;101799.41;12730937;23;20055;-82
2022/11/10 06:48:43;;;;;;;51.90;18.23;;;;;;;8.39;100.00;101818.63;12725890;23;20021;-80
2022/11/10 06:53:44;;;;;;;47.05;18.05;;;;;;;8.40;100.00;101827.69;12745873;23;20017;-80
2022/11/10 06:58:44;;;;;;;51.28;17.98;;;;;;;8.48;100.00;101841.19;12769490;23;20017;-80
2022/11/10 07:03:45;;;;;;;42.50;16.73;;;;;;;8.52;100.00;101842.44;12777681;23;20021;-76
2022/11/10 07:08:46;;;;;;;38.05;16.58;;;;;;;8.63;100.00;101860.97;12771480;23;20017;-80
2022/11/10 07:13:46;;;;;;;53.08;18.17;;;;;;;8.71;100.00;101879.09;12796849;23;20515;-80
2022/11/10 07:18:48;;;;;;;48.80;18.05;;;;;;;8.66;100.00;101876.16;12745938;23;20383;-78
2022/11/10 07:23:48;;;;;;;42.55;18.45;;;;;;;8.71;100.00;101878.28;12797617;23;20017;-79
2022/11/10 07:28:49;;;;;;;46.45;20.13;;;;;;;8.92;100.00;101886.19;12728194;23;20017;-79
2022/11/10 07:33:49;;;;;;;49.03;18.25;;;;;;;8.94;100.00;101889.56;12743556;23;20013;-79
2022/11/10 07:38:50;;;;;;;49.47;20.52;;;;;;;8.96;100.00;101881.94;12747226;23;20009;-80
2022/11/10 07:43:50;;;;;;;42.58;19.13;;;;;;;8.68;100.00;101835.59;12797391;23;20021;-80
2022/11/10 07:48:51;;;;;;;49.72;17.35;;;;;;;8.94;100.00;101878.56;12797309;23;20154;-80
2022/11/10 07:53:52;;;;;;;39.83;17.05;;;;;;;9.02;100.00;101896.72;12698058;23;20028;-80
2022/11/10 07:58:52;;;;;;;47.03;16.17;;;;;;;9.10;100.00;101899.22;12719402;23;20371;-80
2022/11/10 08:03:53;;;;;;;40.53;16.85;;;;;;;9.04;100.00;101897.34;12722294;23;20021;-79
2022/11/10 08:08:53;;;;;;;45.42;15.00;;;;;;;8.97;100.00;101894.63;12744701;23;20462;-80
2022/11/10 08:13:54;;;;;;;41.83;16.58;;;;;;;9.02;100.00;101914.03;12744537;23;20013;-79
2022/11/10 08:18:54;;;;;;;45.90;16.13;;;;;;;9.05;100.00;101916.34;12698195;23;20021;-80
2022/11/10 08:23:54;;;;;;;40.35;15.20;;;;;;;8.75;100.00;101852.06;12800247;23;20067;-80
2022/11/10 08:28:56;;;;;;;35.88;15.07;;;;;;;9.13;100.00;101925.41;12771083;23;20009;-81
2022/11/10 08:33:57;;;;;;;38.90;15.88;;;;;;;9.07;100.00;101916.97;12721698;23;20067;-81
2022/11/10 08:38:57;;;;;;;41.92;16.05;;;;;;;9.19;100.00;101941.00;12745853;23;20069;-79
2022/11/10 08:43:58;;;;;;;34.85;15.75;;;;;;;9.25;100.00;101945.63;12748917;23;20336;-79
2022/11/10 08:48:59;;;;;;;39.88;18.17;;;;;;;9.37;100.00;101954.88;12774455;23;20047;-79
2022/11/10 08:53:59;;;;;;;66.05;19.48;;;;;;;9.54;100.00;101952.44;12749209;23;20021;-79
2022/11/10 08:59:00;;;;;;;36.20;15.10;;;;;;;9.67;100.00;101943.25;12748670;23;20386;-79
2022/11/10 09:04:01;;;;;;;37.70;16.73;;;;;;;9.82;100.00;101946.53;12802205;23;20017;-79
2022/11/10 09:09:01;;;;;;;32.63;15.30;;;;;;;9.96;100.00;101962.94;12799731;23;20045;-80
2022/11/10 09:14:02;;;;;;;41.80;16.20;;;;;;;10.01;100.00;101965.88;12797565;23;20013;-80
2022/11/10 09:19:02;;;;;;;34.05;15.07;;;;;;;10.15;100.00;101983.97;12747843;23;20408;-80
2022/11/10 09:24:03;;;;;;;35.08;14.82;;;;;;;10.28;100.00;101989.34;12723897;23;20434;-80
2022/11/10 09:29:03;;;;;;;36.00;14.23;;;;;;;10.39;100.00;101986.94;12771248;23;20487;-79
2022/11/10 09:34:04;;;;;;;41.20;15.27;;;;;;;10.53;100.00;101988.50;12772140;23;20021;-77
2022/11/10 09:39:06;;;;;;;27.13;12.32;;;;;;;10.58;100.00;101965.78;12771467;23;20065;-81
2022/11/10 09:44:26;;;;;;;27.02;11.93;;;;;;;10.96;100.00;101989.56;12746778;23;20023;-80
2022/11/10 09:49:35;;;;;;;25.30;9.85;;;;;;;11.06;100.00;102004.47;12747577;23;20076;-80
2022/11/10 09:54:44;;;;;;;28.25;10.00;;;;;;;11.29;100.00;101997.41;12747484;23;20017;-80
2022/11/10 09:59:44;;;;;;;28.15;9.85;;;;;;;11.63;100.00;102011.59;12723168;23;20021;-79
2022/11/10 10:05:17;;;;;;;24.63;9.38;;;;;;;11.66;100.00;101978.03;12724374;23;20013;-80
2022/11/10 10:10:27;;;;;;;21.90;8.43;;;;;;;11.95;100.00;101995.66;12789427;23;20032;-80
2022/11/10 10:15:34;;;;;;;25.38;8.55;;;;;;;11.97;100.00;101990.75;12775261;23;20065;-79
2022/11/10 10:20:57;;;;;;;22.38;9.40;;;;;;;12.19;100.00;102002.06;12770438;23;20451;-81
2022/11/10 10:25:57;;;;;;;22.65;8.60;;;;;;;12.19;100.00;102023.31;12766632;23;20029;-78
2022/11/10 10:31:27;;;;;;;18.15;7.80;;;;;;;12.56;100.00;102032.22;12693804;23;20017;-79
2022/11/10 10:36:29;;;;;;;19.38;7.18;;;;;;;12.59;100.00;102037.28;12761425;23;20025;-79
2022/11/10 10:41:31;;;;;;;30.77;7.97;;;;;;;12.48;100.00;102043.63;12766455;23;20009;-81
2022/11/10 10:46:31;;;;;;;18.50;7.35;;;;;;;12.32;100.00;102047.97;12715569;23;20085;-79
2022/11/10 10:51:32;;;;;;;27.23;7.68;;;;;;;12.35;100.00;102052.16;12742785;23;20011;-80
2022/11/10 10:56:33;;;;;;;24.90;7.97;;;;;;;12.26;100.00;102055.25;12699446;23;20016;-79
2022/11/10 11:01:36;;;;;;;26.83;7.85;;;;;;;12.29;100.00;102016.09;12746896;23;20009;-80
2022/11/10 11:06:38;;;;;;;23.90;7.85;;;;;;;12.78;100.00;102051.00;12771142;23;20064;-80
2022/11/10 11:11:39;;;;;;;30.50;8.00;;;;;;;12.86;100.00;102036.81;12733499;23;20017;-80
2022/11/10 11:16:49;;;;;;;26.67;6.43;;;;;;;12.81;100.00;102048.56;12725687;23;20070;-79
2022/11/10 11:21:49;;;;;;;26.73;7.15;;;;;;;13.06;100.00;102058.53;12775096;23;20371;-81
2022/11/10 11:26:57;;;;;;;22.65;6.07;;;;;;;13.31;100.00;102061.03;12774129;23;20073;-80
2022/11/10 11:32:20;;;;;;;17.48;4.40;;;;;;;13.42;100.00;102076.78;12750207;23;20071;-79
2022/11/10 11:37:32;;;;;;;20.38;4.35;;;;;;;13.60;100.00;102078.56;12756526;23;20020;-79
2022/11/10 11:42:51;;;;;;;16.10;4.45;;;;;;;13.62;100.00;102083.81;12726661;23;20017;-79
2022/11/10 11:48:04;;;;;;;22.83;4.50;;;;;;;13.73;100.00;102099.56;12747971;23;20337;-79
2022/11/10 11:53:27;;;;;;;24.85;4.30;;;;;;;13.53;100.00;102103.56;12754174;23;20009;-79
2022/11/10 11:58:38;;;;;;;21.88;3.20;;;;;;;13.47;100.00;102093.47;12770961;23;20068;-79
2022/11/10 12:04:01;;;;;;;18.35;3.63;;;;;;;13.61;100.00;102116.19;12771208;23;20017;-78
2022/11/10 12:09:41;;;;;;;15.43;3.53;;;;;;;13.65;100.00;102116.56;12779180;23;20048;-79
2022/11/10 12:14:47;;;;;;;15.40;3.38;;;;;;;13.80;100.00;102103.00;12800545;23;20023;-79
2022/11/10 12:19:50;;;;;;;22.90;3.13;;;;;;;13.70;100.00;102113.88;12775093;23;20514;-80
2022/11/10 12:25:17;;;;;;;17.48;3.95;;;;;;;13.72;100.00;102117.25;12749150;23;20028;-80
2022/11/10 12:30:18;;;;;;;22.05;3.30;;;;;;;13.72;100.00;102117.25;12750123;23;20041;-80
2022/11/10 12:35:32;;;;;;;16.20;2.65;;;;;;;13.66;100.00;102119.09;12750244;23;20009;-80
2022/11/10 12:40:45;;;;;;;19.50;3.85;;;;;;;13.80;100.00;102136.22;12729270;23;20009;-79
2022/11/10 12:45:48;;;;;;;18.02;3.28;;;;;;;13.69;100.00;102142.66;12751628;23;20017;-80
2022/11/10 12:50:57;;;;;;;20.02;4.13;;;;;;;13.57;100.00;102141.84;12725643;23;20048;-80
2022/11/10 12:56:40;;;;;;;19.08;3.53;;;;;;;13.45;100.00;102117.78;12749280;23;20021;-80
2022/11/10 13:01:43;;;;;;;24.00;3.00;;;;;;;13.07;100.00;102060.22;12509985;23;20026;-79
2022/11/10 13:06:53;;;;;;;17.90;3.08;;;;;;;13.53;100.00;102142.31;12675116;23;20344;-79
2022/11/10 13:12:09;;;;;;;22.27;2.65;;;;;;;13.56;100.00;102134.59;12774301;23;20044;-79
2022/11/10 13:17:30;;;;;;;18.77;2.97;;;;;;;13.54;100.00;102137.63;12798541;23;20520;-79
2022/11/10 13:22:35;;;;;;;14.55;2.90;;;;;;;13.48;100.00;102142.22;12777074;23;20021;-80
2022/11/10 13:27:45;;;;;;;17.70;2.80;;;;;;;13.43;100.00;102130.19;12800304;23;20040;-80
2022/11/10 13:32:45;;;;;;;13.55;2.70;;;;;;;12.66;100.00;102017.81;12798235;23;20061;-80
2022/11/10 13:37:49;;;;;;;14.40;2.05;;;;;;;13.42;100.00;102118.28;12748673;23;20009;-80
2022/11/10 13:42:58;;;;;;;18.52;2.38;;;;;;;13.44;100.00;102135.47;12774172;23;20017;-80
2022/11/10 13:47:58;;;;;;;18.60;2.55;;;;;;;13.43;100.00;102128.25;12797308;23;20040;-81
2022/11/10 13:53:11;;;;;;;13.60;3.17;;;;;;;13.46;100.00;102121.41;12797437;23;20021;-79
2022/11/10 13:58:17;;;;;;;14.20;3.13;;;;;;;13.48;100.00;102133.91;12798100;23;20021;-80
2022/11/10 14:03:44;;;;;;;21.25;2.78;;;;;;;13.55;100.00;102135.69;12748205;23;20053;-80
2022/11/10 14:08:53;;;;;;;19.70;2.17;;;;;;;13.63;100.00;102143.63;12762440;23;20068;-80
2022/11/10 14:13:56;;;;;;;17.35;3.15;;;;;;;13.45;100.00;102139.91;12749277;23;20024;-80
2022/11/10 14:19:28;;;;;;;14.48;2.67;;;;;;;13.43;100.00;102178.03;12723922;23;20052;-79
2022/11/10 14:24:32;;;;;;;20.30;2.60;;;;;;;13.33;100.00;102163.97;12771912;23;20013;-80
2022/11/10 14:29:37;;;;;;;15.48;3.45;;;;;;;13.21;100.00;102166.72;12748649;23;20076;-80
2022/11/10 14:34:43;;;;;;;17.25;2.72;;;;;;;13.05;100.00;102167.44;12772832;23;20052;-80
2022/11/10 14:39:43;;;;;;;19.70;3.30;;;;;;;12.61;100.00;102123.53;12723585;23;20098;-80
2022/11/10 14:44:44;;;;;;;14.50;2.92;;;;;;;12.68;100.00;102151.88;12748015;23;20020;-79
2022/11/10 14:49:44;;;;;;;13.77;2.40;;;;;;;12.98;100.00;102213.69;12746417;23;20017;-80
2022/11/10 14:54:45;;;;;;;16.23;3.90;;;;;;;13.01;100.00;102194.72;12770469;23;20024;-79
2022/11/10 14:59:45;;;;;;;12.23;3.10;;;;;;;12.97;100.00;102193.50;12746420;23;20024;-79
2022/11/10 15:04:46;;;;;;;15.00;3.55;;;;;;;12.97;100.00;102193.50;12771434;23;20028;-78
2022/11/10 15:10:09;;;;;;;22.88;2.95;;;;;;;13.07;100.00;102224.19;12746952;23;20017;-78
2022/11/10 15:15:17;;;;;;;14.57;3.70;;;;;;;12.91;100.00;102202.75;12748003;23;20017;-78
2022/11/10 15:20:37;;;;;;;13.50;2.72;;;;;;;13.08;100.00;102236.06;12747182;23;20032;-79
2022/11/10 15:25:38;;;;;;;14.45;2.50;;;;;;;13.04;100.00;102227.44;12772792;23;20068;-79
2022/11/10 15:30:56;;;;;;;12.23;2.97;;;;;;;12.79;100.00;102201.88;12744694;23;20017;-79
2022/11/10 15:36:23;;;;;;;15.70;3.03;;;;;;;12.77;100.00;102221.47;12747709;23;20096;-78
2022/11/10 15:41:24;;;;;;;27.17;5.07;;;;;;;12.69;100.00;102222.66;12773330;23;20092;-79
2022/11/10 15:46:25;;;;;;;13.80;3.45;;;;;;;12.77;100.00;102259.31;12746225;23;20013;-80
2022/11/10 15:51:25;;;;;;;14.98;4.40;;;;;;;12.64;100.00;102257.59;12746248;23;20013;-78
2022/11/10 15:56:25;;;;;;;15.82;3.85;;;;;;;12.69;100.00;102277.06;12720869;23;20016;-79
2022/11/10 16:01:26;;;;;;;30.45;5.75;;;;;;;12.68;100.00;102273.47;12801622;23;20013;-79
2022/11/10 16:06:29;;;;;;;12.90;2.90;;;;;;;12.70;100.00;102268.53;12751502;23;20025;-78
2022/11/10 16:11:29;;;;;;;13.82;3.22;;;;;;;12.64;100.00;102263.97;12800508;23;20401;-81
2022/11/10 16:16:30;;;;;;;17.27;3.47;;;;;;;12.66;100.00;102264.56;12725206;23;20056;-81
2022/11/10 16:21:30;;;;;;;12.50;3.70;;;;;;;12.55;100.00;102273.66;12769360;23;20020;-81
2022/11/10 16:26:31;;;;;;;11.95;3.75;;;;;;;12.57;100.00;102265.97;12733357;23;20067;-81
2022/11/10 16:31:33;;;;;;;12.82;3.90;;;;;;;12.61;100.00;102285.69;12746071;23;20013;-82
2022/11/10 16:36:34;;;;;;;16.63;4.00;;;;;;;12.61;100.00;102285.69;12738732;23;20023;-81
2022/11/10 16:41:36;;;;;;;13.32;3.35;;;;;;;12.54;100.00;102283.00;12681605;23;20035;-81
2022/11/10 16:46:36;;;;;;;13.32;3.00;;;;;;;12.56;100.00;102283.63;12715797;23;20013;-82
2022/11/10 16:51:39;;;;;;;10.45;3.40;;;;;;;12.61;100.00;102286.53;12721885;23;20079;-81
2022/11/10 16:56:39;;;;;;;24.50;5.50;;;;;;;12.54;100.00;102277.50;12769904;23;20320;-83
2022/11/10 17:01:40;;;;;;;14.32;4.55;;;;;;;12.46;100.00;102270.38;12733587;23;20009;-82
2022/11/10 17:06:42;;;;;;;9.32;2.85;;;;;;;12.54;100.00;102282.19;12699405;23;20013;-83
2022/11/10 17:11:42;;;;;;;16.23;4.35;;;;;;;12.44;100.00;102277.19;12716523;23;20518;-81
2022/11/10 17:16:44;;;;;;;15.05;3.25;;;;;;;12.48;100.00;102303.28;12742728;23;20025;-80
2022/11/10 17:21:44;;;;;;;20.85;4.20;;;;;;;12.45;100.00;102323.09;12747027;23;20009;-81
2022/11/10 17:26:45;;;;;;;17.08;4.53;;;;;;;12.47;100.00;102338.34;12745694;23;20013;-81
2022/11/10 17:31:45;;;;;;;17.85;4.28;;;;;;;12.45;100.00;102328.63;12746643;23;20077;-81
2022/11/10 17:36:48;;;;;;;20.15;2.90;;;;;;;12.45;100.00;102325.84;12769089;23;20017;-80
2022/11/10 17:41:50;;;;;;;14.57;2.58;;;;;;;11.54;100.00;102165.53;12722104;23;20013;-80
2022/11/10 17:46:50;;;;;;;19.95;3.15;;;;;;;12.46;100.00;102319.25;12740947;23;20028;-80
2022/11/10 17:51:51;;;;;;;12.35;2.60;;;;;;;12.41;100.00;102319.94;12769502;23;20009;-78
2022/11/10 17:56:51;;;;;;;13.23;2.63;;;;;;;12.43;100.00;102315.03;12797506;23;22396;-79
2022/11/10 18:01:52;;;;;;;13.40;2.60;;;;;;;12.42;100.00;102326.31;12727305;23;20372;-80
2022/11/10 18:06:52;;;;;;;11.45;2.45;;;;;;;12.02;100.00;102283.44;12739275;23;20048;-82
2022/11/10 18:11:53;;;;;;;11.95;2.50;;;;;;;12.39;100.00;102324.00;12769539;23;20029;-80
2022/11/10 18:16:53;;;;;;;11.05;2.53;;;;;;;12.42;100.00;102329.06;12698215;23;20033;-80
2022/11/10 18:21:55;;;;;;;12.60;3.03;;;;;;;12.43;100.00;102337.13;12743205;23;20020;-80
2022/11/10 18:26:56;;;;;;;8.98;2.65;;;;;;;12.44;100.00;102325.03;12704196;23;20074;-80
2022/11/10 18:31:57;;;;;;;7.20;2.15;;;;;;;12.38;100.00;102311.28;12753419;23;20009;-80
2022/11/10 18:36:57;;;;;;;12.43;2.33;;;;;;;12.43;100.00;102319.72;12746024;23;20040;-81
2022/11/10 18:41:58;;;;;;;9.43;2.95;;;;;;;12.41;100.00;102330.16;12746515;23;20347;-81
2022/11/10 18:46:58;;;;;;;11.43;2.53;;;;;;;12.29;100.00;102308.81;12742796;23;20021;-81
2022/11/10 18:52:00;;;;;;;11.55;2.63;;;;;;;12.37;100.00;102331.69;12731033;23;20061;-81
2022/11/10 18:57:00;;;;;;;13.23;2.45;;;;;;;12.32;100.00;102319.41;12714272;23;20024;-81
2022/11/10 19:02:01;;;;;;;9.50;2.00;;;;;;;12.32;100.00;102337.91;12763386;23;20009;-82
2022/11/10 19:07:01;;;;;;;10.23;3.00;;;;;;;12.02;100.00;102290.88;12771376;23;20036;-81
2022/11/10 19:12:02;;;;;;;8.20;2.20;;;;;;;12.15;100.00;102337.66;12768902;23;20013;-82
2022/11/10 19:17:02;;;;;;;9.30;2.75;;;;;;;11.94;100.00;102299.47;12746476;23;20466;-80
2022/11/10 19:22:03;;;;;;;8.15;2.70;;;;;;;12.20;100.00;102354.38;12769153;23;20016;-80
2022/11/10 19:27:03;;;;;;;12.93;3.03;;;;;;;12.00;100.00;102317.88;12771581;23;20482;-80
2022/11/10 19:32:04;;;;;;;11.88;2.97;;;;;;;11.93;100.00;102330.88;12748159;23;20024;-80
2022/11/10 19:37:06;;;;;;;12.20;3.13;;;;;;;12.07;100.00;102366.41;12775214;23;20064;-80
2022/11/10 19:42:06;;;;;;;9.85;2.88;;;;;;;12.05;100.00;102378.75;12802754;23;20016;-80
2022/11/10 19:47:07;;;;;;;13.23;3.22;;;;;;;12.05;100.00;102378.75;12773003;23;20017;-80
2022/11/10 19:52:07;;;;;;;11.45;2.78;;;;;;;11.97;100.00;102381.78;12803913;23;20012;-81
2022/11/10 19:57:08;;;;;;;12.77;3.83;;;;;;;11.80;100.00;102353.91;12800493;23;20137;-80
2022/11/10 20:02:09;;;;;;;11.95;3.40;;;;;;;11.74;100.00;102355.69;12725976;23;20024;-82
2022/11/10 20:12:29;;;;;;;16.40;3.88;;;;;;;11.75;100.00;102384.94;12778071;23;20024;-80
2022/11/10 20:17:30;;;;;;;16.52;2.80;;;;;;;11.68;100.00;102395.19;12798457;23;20032;-80
2022/11/10 20:22:30;;;;;;;7.53;2.58;;;;;;;11.56;100.00;102394.22;12807178;23;20089;-80
2022/11/10 20:27:31;;;;;;;10.13;2.47;;;;;;;11.51;100.00;102403.16;12800793;23;20013;-79
2022/11/10 20:32:31;;;;;;;18.08;2.97;;;;;;;11.48;100.00;102406.38;12773053;23;20060;-81
2022/11/10 20:37:32;;;;;;;9.13;2.70;;;;;;;11.31;100.00;102384.00;12770571;23;20024;-80
2022/11/10 20:42:32;;;;;;;8.55;2.28;;;;;;;11.27;100.00;102393.78;12797676;23;20016;-80
2022/11/10 20:47:33;;;;;;;8.18;1.80;;;;;;;11.30;100.00;102413.47;12767280;23;20460;-79
2022/11/10 20:52:34;;;;;;;6.60;2.08;;;;;;;11.13;100.00;102397.69;12794391;23;20013;-80
2022/11/10 20:57:34;;;;;;;9.02;2.25;;;;;;;11.20;100.00;102409.50;12794921;23;20356;-80
2022/11/10 21:02:35;;;;;;;12.32;2.75;;;;;;;11.27;100.00;102437.91;12741015;23;20017;-80
2022/11/10 21:07:35;;;;;;;7.90;2.42;;;;;;;11.24;100.00;102444.69;12792223;23;20017;-80
2022/11/10 21:12:48;;;;;;;8.88;2.22;;;;;;;11.17;100.00;102454.06;12795866;23;20013;-79
2022/11/10 21:17:48;;;;;;;10.63;2.78;;;;;;;11.10;100.00;102459.63;12791602;23;20363;-79
2022/11/10 21:22:49;;;;;;;8.00;2.35;;;;;;;11.16;100.00;102453.19;12744867;23;20021;-80
2022/11/10 21:27:49;;;;;;;6.95;2.22;;;;;;;10.92;100.00;102424.50;12772687;23;20013;-81
2022/11/10 21:32:50;;;;;;;8.55;2.25;;;;;;;11.10;100.00;102465.97;12768949;23;20016;-81
2022/11/10 21:37:50;;;;;;;8.95;2.97;;;;;;;11.11;100.00;102455.78;12771373;23;20013;-81
2022/11/10 21:42:54;;;;;;;12.25;2.67;;;;;;;11.08;100.00;102462.59;12735687;23;20016;-80
2022/11/10 21:47:59;;;;;;;6.60;2.65;;;;;;;11.07;100.00;102460.88;12772127;23;20041;-80
2022/11/10 21:53:00;;;;;;;6.07;2.30;;;;;;;11.06;100.00;102452.84;12743823;23;20013;-79
2022/11/10 21:58:00;;;;;;;7.07;2.35;;;;;;;10.97;100.00;102435.69;12790321;23;20017;-80
2022/11/10 22:03:01;;;;;;;9.57;2.75;;;;;;;11.03;100.00;102454.13;12771428;23;20009;-81
2022/11/10 22:08:02;;;;;;;13.32;3.40;;;;;;;11.03;100.00;102443.09;12721931;23;20017;-80
2022/11/10 22:18:39;;;;;;;14.50;3.40;;;;;;;11.13;100.00;102448.16;12774926;23;20016;-79
2022/11/10 22:28:59;;;;;;;18.92;3.85;;;;;;;11.11;100.00;102451.13;12770784;23;20010;-80
2022/11/10 22:34:00;;;;;;;11.18;3.55;;;;;;;10.99;100.00;102441.00;12803646;23;20076;-80
2022/11/10 22:39:01;;;;;;;10.38;3.75;;;;;;;11.07;100.00;102465.56;12770072;23;20021;-90
2022/11/10 22:44:05;;;;;;;12.13;3.83;;;;;;;10.93;100.00;102437.19;12777110;23;20021;-88
2022/11/10 22:49:07;;;;;;;9.88;4.05;;;;;;;11.03;100.00;102469.81;12779833;23;20024;-91
2022/11/10 22:54:15;;;;;;;10.20;3.67;;;;;;;11.01;100.00;102475.53;12802995;23;20017;-93
2022/11/10 22:59:16;;;;;;;12.25;4.00;;;;;;;11.01;100.00;102486.56;12755574;23;20020;-94
2022/11/10 23:04:16;;;;;;;13.00;4.28;;;;;;;10.98;100.00;102478.75;12783846;23;20077;-90
2022/11/10 23:09:17;;;;;;;11.40;4.65;;;;;;;10.92;100.00;102474.09;12805122;23;20021;-93
2022/11/10 23:14:17;;;;;;;9.10;4.10;;;;;;;10.89;100.00;102480.03;12753237;23;20052;-88
2022/11/10 23:19:18;;;;;;;13.55;4.57;;;;;;;10.80;100.00;102475.84;12777775;23;20028;-92
2022/11/10 23:24:21;;;;;;;15.02;4.47;;;;;;;10.79;100.00;102485.16;12753356;23;20533;-91